Time;durP1;ratioP1;P1;durP2;ratioP2;P2;SDS_P1;SDS_P2;PMS_P1;PMS_P2;Temp;Humidity;BMP_temperature;BMP_pressure;BME280_temperature;BME280_humidity;BME280_pressure;Samples;Min_cycle;Max_cycle;Signal;HPM_P1;HPM_P2
2021/11/14 00:01:36;;;;;;;1999.90;999.90;;;;;;;6.76;97.87;164200.06;4996820;28;20132;-65
2021/11/14 00:04:03;;;;;;;1999.90;999.90;;;;;;;6.85;97.47;164224.78;5000118;28;20148;-66
2021/11/14 00:06:29;;;;;;;1999.90;999.90;;;;;;;6.75;97.99;164195.94;5001229;28;20047;-65
2021/11/14 00:08:56;;;;;;;1999.90;999.90;;;;;;;6.73;97.92;164190.41;4998449;28;20058;-65
2021/11/14 00:11:23;;;;;;;1999.90;999.90;;;;;;;6.68;98.59;164178.06;5000941;28;20081;-65
2021/11/14 00:13:53;;;;;;;1999.90;999.90;;;;;;;6.52;98.47;164135.50;5000016;28;20085;-65
2021/11/14 00:16:22;;;;;;;1999.90;999.90;;;;;;;6.52;99.04;164136.88;5000111;28;20107;-65
2021/11/14 00:18:49;;;;;;;1999.90;999.90;;;;;;;6.67;99.17;164176.72;5001744;28;20054;-65
2021/11/14 00:21:18;;;;;;;1999.90;999.90;;;;;;;6.54;98.70;164141.00;4997716;28;20069;-65
2021/11/14 00:23:45;;;;;;;1999.90;999.90;;;;;;;6.66;98.21;164173.94;4999919;28;20054;-65
2021/11/14 00:26:12;;;;;;;1999.90;999.90;;;;;;;6.78;97.85;164204.19;5000176;28;20115;-65
2021/11/14 00:28:41;;;;;;;1999.90;999.90;;;;;;;6.71;98.13;164186.31;4999304;28;20344;-65
2021/11/14 00:31:13;;;;;;;1999.90;999.90;;;;;;;6.52;98.42;164135.50;4999834;28;20085;-65
2021/11/14 00:33:44;;;;;;;1999.90;999.90;;;;;;;6.54;98.99;164141.00;5000565;28;20427;-65
2021/11/14 00:36:11;;;;;;;1999.90;999.90;;;;;;;6.43;99.45;164110.75;5002268;28;20116;-65
2021/11/14 00:38:39;;;;;;;1999.90;999.90;;;;;;;6.23;100.00;164058.56;5003782;28;20063;-65
2021/11/14 00:41:07;;;;;;;1999.90;999.90;;;;;;;6.38;99.73;164097.03;5004521;28;20501;-65
2021/11/14 00:43:35;;;;;;;1999.90;999.90;;;;;;;6.72;98.92;164189.06;5003638;28;20080;-65
2021/11/14 00:46:04;;;;;;;1999.90;999.90;;;;;;;6.68;97.98;164179.47;5004354;28;20131;-65
2021/11/14 00:48:32;;;;;;;1999.90;999.90;;;;;;;6.68;98.40;164178.06;5003199;28;20057;-65
2021/11/14 00:51:02;;;;;;;1999.90;999.90;;;;;;;6.68;98.44;164178.06;5002984;28;20205;-65
2021/11/14 00:53:30;;;;;;;1999.90;999.90;;;;;;;5.94;100.00;163980.25;5004901;28;20045;-65
2021/11/14 00:55:56;;;;;;;1999.90;999.90;;;;;;;5.74;100.00;163928.09;5000800;28;20173;-65
2021/11/14 00:58:25;;;;;;;1999.90;999.90;;;;;;;5.76;100.00;163932.19;5001081;28;20360;-65
2021/11/14 01:00:52;;;;;;;1999.90;999.90;;;;;;;6.11;100.00;164025.63;5003499;28;20399;-65
2021/11/14 01:03:19;;;;;;;1999.90;999.90;;;;;;;5.88;100.00;163965.19;5001391;28;20062;-65
2021/11/14 01:05:46;;;;;;;1999.90;999.90;;;;;;;6.69;100.00;164182.19;4992802;28;20085;-65
2021/11/14 01:08:13;;;;;;;1999.90;999.90;;;;;;;5.87;100.00;163962.41;4994214;28;20473;-65
2021/11/14 01:10:45;;;;;;;1999.90;999.90;;;;;;;5.87;100.00;163962.41;4998832;28;20042;-65
2021/11/14 01:13:12;;;;;;;1999.90;999.90;;;;;;;6.38;100.00;164097.03;5003288;28;20080;-65
2021/11/14 01:15:40;;;;;;;1999.90;999.90;;;;;;;6.68;99.78;164178.06;5000130;28;20042;-65
2021/11/14 01:18:08;;;;;;;1999.90;999.90;;;;;;;6.38;100.00;164098.41;5000223;28;20125;-65
2021/11/14 01:20:37;;;;;;;1999.90;999.90;;;;;;;6.38;100.00;164097.03;4999465;28;20480;-65
2021/11/14 01:23:06;;;;;;;1999.90;999.90;;;;;;;6.87;98.85;164228.91;4994958;28;20124;-66
2021/11/14 01:25:33;;;;;;;1999.90;999.90;;;;;;;6.66;98.90;164173.94;5004084;28;20049;-65
2021/11/14 01:28:00;;;;;;;1999.90;999.90;;;;;;;6.60;99.50;164157.47;4999827;28;20503;-65
2021/11/14 01:30:32;;;;;;;1999.90;999.90;;;;;;;6.83;99.24;164219.31;4994027;28;20042;-65
2021/11/14 01:33:00;;;;;;;1999.90;999.90;;;;;;;6.62;99.65;164162.94;5007239;28;20521;-65
2021/11/14 01:35:28;;;;;;;1999.90;999.90;;;;;;;6.92;98.97;164242.63;5001466;28;20104;-65
2021/11/14 01:37:55;;;;;;;1999.90;999.90;;;;;;;6.80;98.58;164209.66;4995990;28;20414;-65
2021/11/14 01:40:31;;;;;;;1999.90;999.90;;;;;;;7.06;98.04;164279.75;4999751;28;20436;-65
2021/11/14 01:42:58;;;;;;;1999.90;999.90;;;;;;;6.84;99.08;164222.03;4997170;28;20375;-65
2021/11/14 01:45:25;;;;;;;1999.90;999.90;;;;;;;6.90;98.92;164237.16;5003964;28;20112;-65
2021/11/14 01:47:52;;;;;;;1999.90;999.90;;;;;;;6.91;98.94;164239.91;4999743;28;20436;-65
2021/11/14 01:50:20;;;;;;;1999.90;999.90;;;;;;;7.17;98.30;164308.59;4995319;28;20533;-65
2021/11/14 01:52:49;;;;;;;1999.90;999.90;;;;;;;7.07;98.13;164281.09;4997729;28;20238;-66
2021/11/14 01:55:20;;;;;;;1999.90;999.90;;;;;;;7.26;97.49;164331.97;4999345;28;20427;-65
2021/11/14 01:57:46;;;;;;;1999.90;999.90;;;;;;;7.32;96.99;164348.44;4996925;28;20089;-65
2021/11/14 02:00:27;;;;;;;1999.90;999.90;;;;;;;7.11;98.08;164292.09;4999927;28;20089;-66
2021/11/14 02:02:54;;;;;;;1999.90;999.90;;;;;;;7.43;96.76;164377.28;4996523;28;20138;-65
2021/11/14 02:05:23;;;;;;;1999.90;999.90;;;;;;;7.34;97.04;164353.91;4995110;28;20141;-65
2021/11/14 02:07:55;;;;;;;1999.90;999.90;;;;;;;7.32;97.43;164349.78;4999298;28;20046;-65
2021/11/14 02:10:22;;;;;;;;;;;;;;;7.20;97.79;164316.84;4999724;28;20122;-66
2021/11/14 02:12:49;;;;;;;1999.90;999.90;;;;;;;6.97;99.18;164255.03;5004335;28;19967;-65
2021/11/14 02:15:16;;;;;;;1999.90;999.90;;;;;;;7.20;98.30;164316.84;4997050;28;20050;-65
2021/11/14 02:17:43;;;;;;;1999.90;999.90;;;;;;;7.03;99.21;164271.50;4998924;28;20502;-65
2021/11/14 02:20:11;;;;;;;1999.90;999.90;;;;;;;6.99;99.24;164261.88;5005725;28;20078;-66
2021/11/14 02:22:38;;;;;;;1999.90;999.90;;;;;;;7.04;99.20;164274.22;4999930;28;20100;-65
2021/11/14 02:25:11;;;;;;;1999.90;999.90;;;;;;;7.26;98.41;164333.31;4993649;28;20054;-65
2021/11/14 02:27:39;;;;;;;1999.90;999.90;;;;;;;7.00;99.56;164264.63;4999828;28;20053;-65
2021/11/14 02:30:09;;;;;;;1999.90;999.90;;;;;;;7.12;98.87;164294.88;4997838;28;20049;-65
2021/11/14 02:32:36;;;;;;;1999.90;999.90;;;;;;;7.29;98.73;164341.56;5000068;28;20081;-65
2021/11/14 02:35:23;;;;;;;1999.90;999.90;;;;;;;7.21;98.58;164319.59;5004199;28;20072;-65
2021/11/14 02:37:51;;;;;;;1999.90;999.90;;;;;;;7.33;98.17;164352.56;5000431;28;20058;-65
2021/11/14 02:40:18;;;;;;;1999.90;999.90;;;;;;;7.30;98.66;164344.31;5001607;28;20061;-66
2021/11/14 02:42:47;;;;;;;1999.90;999.90;;;;;;;7.42;98.07;164374.56;4998112;28;20038;-65
2021/11/14 02:45:16;;;;;;;1999.90;999.90;;;;;;;7.40;98.01;164371.81;4996406;28;20053;-65
2021/11/14 02:47:45;;;;;;;1999.90;999.90;;;;;;;7.58;97.58;164418.56;4993304;28;20054;-65
2021/11/14 02:50:12;;;;;;;1999.90;999.90;;;;;;;7.62;97.09;164428.16;4999816;28;20192;-65
2021/11/14 02:52:39;;;;;;;1999.90;999.90;;;;;;;7.54;97.52;164407.53;4998215;28;20045;-65
2021/11/14 02:55:08;;;;;;;1999.90;999.90;;;;;;;7.11;98.66;164292.09;5004031;28;20439;-65
2021/11/14 02:57:35;;;;;;;1999.90;999.90;;;;;;;7.04;99.65;164274.22;5000499;28;20084;-65
2021/11/14 03:00:06;;;;;;;1999.90;999.90;;;;;;;7.24;99.23;164327.84;4996870;28;20104;-65
2021/11/14 03:02:33;;;;;;;;;;;;;;;7.38;98.64;164366.31;5000972;28;20096;-65
2021/11/14 03:05:09;;;;;;;1999.90;999.90;;;;;;;7.71;96.94;164454.28;4997764;28;19969;-65
2021/11/14 03:07:35;;;;;;;1999.90;999.90;;;;;;;7.81;96.69;164479.03;4994186;28;20316;-65
2021/11/14 03:10:05;;;;;;;1999.90;999.90;;;;;;;7.78;96.81;164470.78;5001416;28;20418;-65
2021/11/14 03:12:32;;;;;;;1999.90;999.90;;;;;;;7.86;96.26;164494.16;4997975;28;20432;-65
2021/11/14 03:14:59;;;;;;;1999.90;999.90;;;;;;;7.84;96.35;164487.25;4992298;28;20050;-65
2021/11/14 03:17:26;;;;;;;1999.90;999.90;;;;;;;7.63;97.05;164430.91;4996623;28;20355;-65
2021/11/14 03:19:53;;;;;;;1999.90;999.90;;;;;;;7.67;96.90;164443.28;4994732;28;21190;-65
2021/11/14 03:22:19;;;;;;;1999.90;999.90;;;;;;;7.73;96.57;164459.78;4995532;28;20438;-65
2021/11/14 03:24:48;;;;;;;1999.90;999.90;;;;;;;7.57;97.03;164417.13;4999272;28;20394;-65
2021/11/14 03:27:16;;;;;;;1999.90;999.90;;;;;;;7.63;97.04;164432.28;4994746;28;20108;-65
2021/11/14 03:29:43;;;;;;;1999.90;999.90;;;;;;;7.73;96.89;164459.78;4996712;28;20077;-65
2021/11/14 03:32:13;;;;;;;1999.90;999.90;;;;;;;7.96;95.51;164520.25;4998374;28;20455;-65
2021/11/14 03:34:41;;;;;;;1999.90;999.90;;;;;;;7.67;96.79;164441.91;4992550;28;20054;-65
2021/11/14 03:37:17;;;;;;;1999.90;999.90;;;;;;;7.72;97.00;164457.00;4999603;28;20046;-65
2021/11/14 03:39:47;;;;;;;1999.90;999.90;;;;;;;7.54;97.56;164407.53;4997008;28;20447;-65
2021/11/14 03:42:14;;;;;;;1999.90;999.90;;;;;;;7.61;96.98;164426.78;4996255;28;20372;-65
2021/11/14 03:44:42;;;;;;;1999.90;999.90;;;;;;;7.75;96.80;164463.88;5000347;28;20046;-66
2021/11/14 03:47:10;;;;;;;1999.90;999.90;;;;;;;7.74;96.63;164462.53;4995233;28;20180;-66
2021/11/14 03:49:37;;;;;;;1999.90;999.90;;;;;;;7.74;96.55;164462.53;5003002;28;20047;-65
2021/11/14 03:52:09;;;;;;;1999.90;999.90;;;;;;;7.80;96.37;164476.25;4999954;28;20046;-66
2021/11/14 03:54:37;;;;;;;1999.90;999.90;;;;;;;7.88;95.84;164499.63;5001074;28;20046;-65
2021/11/14 03:57:23;;;;;;;1999.90;999.90;;;;;;;7.80;96.08;164476.25;4998678;28;20060;-65
2021/11/14 03:59:50;;;;;;;1999.90;999.90;;;;;;;7.85;96.03;164490.03;4995644;28;20080;-65
2021/11/14 04:02:17;;;;;;;1999.90;999.90;;;;;;;7.82;96.12;164483.13;5003232;28;20173;-65
2021/11/14 04:04:44;;;;;;;1999.90;999.90;;;;;;;7.80;96.01;164477.66;5002929;28;20084;-65
2021/11/14 04:07:11;;;;;;;1999.90;999.90;;;;;;;7.89;95.88;164501.00;4999353;28;20057;-65
2021/11/14 04:09:37;;;;;;;1999.90;999.90;;;;;;;7.46;97.54;164385.53;5005536;28;20074;-65
2021/11/14 04:12:05;;;;;;;1999.90;999.90;;;;;;;7.76;96.52;164468.00;4999398;28;20135;-65
2021/11/14 04:14:32;;;;;;;1999.90;999.90;;;;;;;7.67;96.69;164441.91;5003231;28;20053;-66
2021/11/14 04:16:58;;;;;;;1999.90;999.90;;;;;;;7.76;96.13;164466.66;5004819;28;20081;-66
2021/11/14 04:19:26;;;;;;;1999.90;999.90;;;;;;;7.72;96.26;164457.00;5005139;28;20497;-65
2021/11/14 04:21:54;;;;;;;1999.90;999.90;;;;;;;7.75;96.17;164465.25;4998199;28;20046;-66
2021/11/14 04:24:21;;;;;;;1999.90;999.90;;;;;;;7.25;97.75;164329.19;5001798;28;20054;-65
2021/11/14 04:26:47;;;;;;;1999.90;999.90;;;;;;;7.26;98.18;164333.31;5002356;28;20491;-65
2021/11/14 04:29:14;;;;;;;1999.90;999.90;;;;;;;7.39;97.98;164369.03;4997902;28;20062;-65
2021/11/14 04:31:40;;;;;;;1999.90;999.90;;;;;;;7.58;97.00;164419.91;4998905;28;20070;-65
2021/11/14 04:34:07;;;;;;;1999.90;999.90;;;;;;;7.48;97.59;164391.06;4998332;28;20053;-65
2021/11/14 04:36:33;;;;;;;1999.90;999.90;;;;;;;7.65;96.99;164437.81;4995545;28;20452;-65
2021/11/14 04:39:00;;;;;;;1999.90;999.90;;;;;;;7.42;97.65;164374.56;4999681;28;20050;-65
2021/11/14 04:41:26;;;;;;;1999.90;999.90;;;;;;;7.53;97.22;164404.78;4997195;28;20046;-66
2021/11/14 04:43:53;;;;;;;1999.90;999.90;;;;;;;7.46;97.49;164386.94;5002840;28;20105;-66
2021/11/14 04:46:20;;;;;;;1999.90;999.90;;;;;;;7.56;97.18;164413.03;5005257;28;20305;-65
2021/11/14 04:48:46;;;;;;;1999.90;999.90;;;;;;;7.39;97.44;164369.03;5005001;28;20061;-65
2021/11/14 04:51:13;;;;;;;1999.90;999.90;;;;;;;7.58;96.95;164418.56;4997710;28;20070;-65
2021/11/14 04:53:39;;;;;;;1999.90;999.90;;;;;;;7.49;97.45;164393.75;4998697;28;20054;-65
2021/11/14 04:56:06;;;;;;;1999.90;999.90;;;;;;;7.52;97.41;164402.06;5000781;28;20128;-65
2021/11/14 04:58:32;;;;;;;1999.90;999.90;;;;;;;7.63;96.98;164430.91;5000802;28;20065;-65
2021/11/14 05:00:59;;;;;;;1999.90;999.90;;;;;;;7.84;96.03;164487.25;4995108;28;20528;-65
2021/11/14 05:03:26;;;;;;;1999.90;999.90;;;;;;;7.72;96.51;164455.66;5001509;28;20046;-65
2021/11/14 05:05:57;;;;;;;1999.90;999.90;;;;;;;7.56;97.18;164413.03;5000302;28;20061;-65
2021/11/14 05:08:24;;;;;;;1999.90;999.90;;;;;;;7.55;97.13;164411.66;5000408;28;20045;-65
2021/11/14 05:10:52;;;;;;;1999.90;999.90;;;;;;;7.68;96.77;164446.03;4999691;28;20050;-65
2021/11/14 05:13:19;;;;;;;1999.90;999.90;;;;;;;7.85;96.18;164491.38;4997397;28;20042;-65
2021/11/14 05:15:46;;;;;;;1999.90;999.90;;;;;;;7.80;96.52;164476.25;4997596;28;20109;-65
2021/11/14 05:18:14;;;;;;;1999.90;999.90;;;;;;;7.87;95.74;164495.50;5000809;28;20112;-65
2021/11/14 05:20:40;;;;;;;1999.90;999.90;;;;;;;7.94;95.33;164516.13;4993032;28;20078;-65
2021/11/14 05:23:08;;;;;;;1999.90;999.90;;;;;;;7.54;96.52;164407.53;5003482;28;20442;-66
2021/11/14 05:25:35;;;;;;;1999.90;999.90;;;;;;;7.84;96.14;164487.25;5000150;28;20054;-65
2021/11/14 05:28:02;;;;;;;1999.90;999.90;;;;;;;7.51;97.01;164399.31;4997263;28;20328;-65
2021/11/14 05:30:29;;;;;;;1999.90;999.90;;;;;;;7.71;96.14;164454.28;5000687;28;20050;-65
2021/11/14 05:32:56;;;;;;;1999.90;999.90;;;;;;;7.80;95.92;164476.25;5001284;28;20096;-66
2021/11/14 05:35:23;;;;;;;1999.90;999.90;;;;;;;7.79;96.14;164473.53;4997479;28;20342;-65
2021/11/14 05:37:49;;;;;;;1999.90;999.90;;;;;;;7.90;96.06;164505.16;5001325;28;20100;-65
2021/11/14 05:40:16;;;;;;;1999.90;999.90;;;;;;;7.76;95.92;164468.00;5000375;28;20101;-65
2021/11/14 05:42:43;;;;;;;1999.90;999.90;;;;;;;7.58;96.67;164418.56;5009020;28;20096;-65
2021/11/14 05:45:09;;;;;;;1999.90;999.90;;;;;;;7.69;95.96;164448.75;4998858;28;20054;-65
2021/11/14 05:47:36;;;;;;;1999.90;999.90;;;;;;;7.61;96.83;164425.38;5003786;28;20077;-66
2021/11/14 05:50:06;;;;;;;1999.90;999.90;;;;;;;7.78;95.89;164470.78;4998386;28;20456;-66
2021/11/14 05:52:33;;;;;;;1999.90;999.90;;;;;;;7.67;96.32;164443.28;5005183;28;20088;-66
2021/11/14 05:54:59;;;;;;;1999.90;999.90;;;;;;;7.84;95.85;164487.25;5002738;28;20050;-66
2021/11/14 05:57:27;;;;;;;1999.90;999.90;;;;;;;7.80;95.67;164476.25;5003218;28;20042;-66
2021/11/14 06:00:06;;;;;;;1999.90;999.90;;;;;;;8.02;95.02;164535.38;5003123;28;20050;-66
2021/11/14 06:02:42;;;;;;;1999.90;999.90;;;;;;;7.96;94.71;164520.25;4998587;28;20042;-66
2021/11/14 06:07:35;;;;;;;1999.90;999.90;;;;;;;7.59;96.41;164421.25;5004917;28;20081;-66
2021/11/14 06:10:03;;;;;;;1999.90;999.90;;;;;;;7.85;95.19;164490.03;5004639;28;20077;-66
2021/11/14 06:12:30;;;;;;;1999.90;999.90;;;;;;;7.76;95.16;164468.00;4999320;28;20554;-66
2021/11/14 06:14:56;;;;;;;1999.90;999.90;;;;;;;7.93;94.59;164512.00;5006530;28;20052;-66
2021/11/14 06:17:23;;;;;;;1999.90;999.90;;;;;;;8.07;94.30;164550.50;4996909;28;20347;-66
2021/11/14 06:19:50;;;;;;;1999.90;999.90;;;;;;;7.93;94.75;164512.00;4997942;28;20081;-66
2021/11/14 06:22:18;;;;;;;1999.90;999.90;;;;;;;7.91;94.60;164506.53;4995652;28;20100;-66
2021/11/14 06:24:45;;;;;;;1999.90;999.90;;;;;;;7.61;95.89;164426.78;4996790;28;20046;-66
2021/11/14 06:27:13;;;;;;;1999.90;999.90;;;;;;;7.90;94.80;164503.75;4994611;28;20050;-66
2021/11/14 06:29:40;;;;;;;1999.90;999.90;;;;;;;8.11;93.80;164561.53;5000124;28;20050;-66
2021/11/14 06:32:07;;;;;;;1999.90;999.90;;;;;;;8.19;93.37;164580.78;4997365;28;20432;-66
2021/11/14 06:34:34;;;;;;;1999.90;999.90;;;;;;;7.72;95.43;164455.66;4995205;28;20356;-66
2021/11/14 06:37:00;;;;;;;1999.90;999.90;;;;;;;7.86;94.68;164492.75;4999302;28;20455;-66
2021/11/14 06:39:27;;;;;;;1999.90;999.90;;;;;;;8.03;94.46;164538.16;4996654;28;20050;-66
2021/11/14 06:41:53;;;;;;;1999.90;999.90;;;;;;;8.03;94.03;164539.50;4996708;28;20133;-66
2021/11/14 06:44:20;;;;;;;1999.90;999.90;;;;;;;8.15;93.79;164569.78;4999977;28;20456;-66
2021/11/14 06:46:46;;;;;;;1999.90;999.90;;;;;;;8.22;93.32;164590.38;4999134;28;20478;-66
2021/11/14 06:49:13;;;;;;;1999.90;999.90;;;;;;;8.23;93.03;164593.16;4995195;28;20391;-66
2021/11/14 06:51:40;;;;;;;1999.90;999.90;;;;;;;8.10;93.32;164558.75;4997184;28;20431;-66
2021/11/14 06:54:06;;;;;;;1999.90;999.90;;;;;;;8.10;93.81;164558.75;4997524;28;20432;-66
2021/11/14 06:56:33;;;;;;;1999.90;999.90;;;;;;;8.18;93.66;164578.03;4995375;28;20120;-66
2021/11/14 06:58:59;;;;;;;1999.90;999.90;;;;;;;8.22;93.29;164590.38;4996587;28;20049;-66
2021/11/14 07:01:26;;;;;;;1999.90;999.90;;;;;;;8.04;93.85;164542.28;4999747;28;20046;-66
2021/11/14 07:03:53;;;;;;;1999.90;999.90;;;;;;;8.17;93.53;164575.25;5002460;28;20057;-66
2021/11/14 07:06:19;;;;;;;1999.90;999.90;;;;;;;7.85;94.46;164490.03;5003035;28;20053;-66
2021/11/14 07:08:46;;;;;;;1999.90;999.90;;;;;;;7.99;94.23;164528.50;4997312;28;20765;-66
2021/11/14 07:11:13;;;;;;;1999.90;999.90;;;;;;;7.85;94.83;164490.03;5000166;28;20124;-66
2021/11/14 07:13:40;;;;;;;1999.90;999.90;;;;;;;7.91;94.43;164507.88;4997299;28;20042;-66
2021/11/14 07:16:06;;;;;;;1999.90;999.90;;;;;;;8.15;93.67;164571.13;4999950;28;20049;-66
2021/11/14 07:18:33;;;;;;;1999.90;999.90;;;;;;;8.14;93.43;164567.00;4997403;28;20081;-66
2021/11/14 07:20:59;;;;;;;1999.90;999.90;;;;;;;8.02;93.65;164536.75;5000551;28;20131;-66
2021/11/14 07:23:26;;;;;;;1999.90;999.90;;;;;;;7.84;94.21;164488.63;4995479;28;20092;-66
2021/11/14 07:25:53;;;;;;;1999.90;999.90;;;;;;;7.92;94.09;164509.28;4998556;28;20465;-66
2021/11/14 07:28:19;;;;;;;1999.90;999.90;;;;;;;8.07;93.75;164550.50;4996356;28;20054;-66
2021/11/14 07:30:46;;;;;;;1999.90;999.90;;;;;;;7.62;94.55;164428.16;4997912;28;20046;-66
2021/11/14 07:33:13;;;;;;;1999.90;999.90;;;;;;;7.83;94.02;164484.50;4991702;28;20315;-66
2021/11/14 07:35:40;;;;;;;1999.90;999.90;;;;;;;8.18;92.87;164579.38;5000101;28;20051;-66
2021/11/14 07:38:07;;;;;;;1999.90;999.90;;;;;;;7.93;93.06;164513.41;5002733;28;20514;-66
2021/11/14 07:40:33;;;;;;;1999.90;999.90;;;;;;;7.94;93.58;164516.13;4996213;28;20502;-66
2021/11/14 07:43:00;;;;;;;1999.90;999.90;;;;;;;7.98;92.97;164525.78;4995834;28;20356;-66
2021/11/14 07:45:28;;;;;;;1999.90;999.90;;;;;;;8.02;92.07;164536.75;5000024;28;20054;-66
2021/11/14 07:47:55;;;;;;;1999.90;999.90;;;;;;;8.01;92.38;164534.03;5006292;28;20074;-66
2021/11/14 07:50:27;;;;;;;1999.90;999.90;;;;;;;7.79;93.28;164473.53;5002250;28;20050;-66
2021/11/14 07:52:56;;;;;;;1999.90;999.90;;;;;;;8.03;92.35;164538.16;5002317;28;20132;-66
2021/11/14 07:55:23;;;;;;;1999.90;999.90;;;;;;;8.27;91.53;164602.75;4999818;28;20431;-66
2021/11/14 07:57:49;;;;;;;1999.90;999.90;;;;;;;8.28;91.72;164606.88;5001726;28;20104;-66
2021/11/14 08:00:19;;;;;;;1999.90;999.90;;;;;;;8.08;91.82;164553.28;4997942;28;20507;-66
2021/11/14 08:02:46;;;;;;;1999.90;999.90;;;;;;;8.31;91.21;164613.78;5000112;28;20054;-66
2021/11/14 08:05:14;;;;;;;1999.90;999.90;;;;;;;8.10;91.32;164557.41;4998741;28;20046;-66
2021/11/14 08:07:42;;;;;;;1999.90;999.90;;;;;;;8.35;90.89;164623.38;5001746;28;20050;-66
2021/11/14 08:10:10;;;;;;;1999.90;999.90;;;;;;;8.18;91.31;164579.38;5001711;28;20053;-66
2021/11/14 08:12:37;;;;;;;1999.90;999.90;;;;;;;8.14;91.51;164567.00;4998132;28;20057;-66
2021/11/14 08:15:05;;;;;;;1999.90;999.90;;;;;;;7.75;93.52;164463.88;5001507;28;20058;-66
2021/11/14 08:17:32;;;;;;;1999.90;999.90;;;;;;;7.65;93.98;164437.81;5002072;28;20446;-67
2021/11/14 08:20:00;;;;;;;1999.90;999.90;;;;;;;8.02;92.60;164535.38;4997816;28;20394;-66
2021/11/14 08:22:28;;;;;;;1999.90;999.90;;;;;;;8.31;91.43;164613.78;5010987;28;20336;-66
2021/11/14 08:24:56;;;;;;;1999.90;999.90;;;;;;;8.09;92.08;164556.00;4998558;28;20054;-66
2021/11/14 08:27:23;;;;;;;1999.90;999.90;;;;;;;8.14;91.77;164567.00;5001577;28;20050;-65
2021/11/14 08:29:50;;;;;;;1999.90;999.90;;;;;;;8.06;92.42;164546.38;4998537;28;20448;-66
2021/11/14 08:32:18;;;;;;;1999.90;999.90;;;;;;;8.28;91.44;164605.53;4999450;28;20562;-66
2021/11/14 08:34:45;;;;;;;1999.90;999.90;;;;;;;8.41;90.84;164639.88;5001665;28;20080;-66
2021/11/14 08:37:13;;;;;;;1999.90;999.90;;;;;;;8.32;91.29;164615.13;5003289;28;20424;-66
2021/11/14 08:39:40;;;;;;;1999.90;999.90;;;;;;;8.37;90.70;164628.91;5003579;28;20356;-66
2021/11/14 08:42:08;;;;;;;1999.90;999.90;;;;;;;8.43;90.12;164645.41;5001050;28;20768;-65
2021/11/14 08:44:34;;;;;;;1999.90;999.90;;;;;;;8.42;90.28;164644.00;4999152;28;20398;-65
2021/11/14 08:47:01;;;;;;;1999.90;999.90;;;;;;;8.04;91.58;164540.84;5006248;28;20050;-66
2021/11/14 08:49:28;;;;;;;1999.90;999.90;;;;;;;8.36;90.65;164626.16;5000401;28;20093;-66
2021/11/14 08:51:54;;;;;;;1999.90;999.90;;;;;;;8.20;91.01;164584.91;5000763;28;20077;-66
2021/11/14 08:54:22;;;;;;;1999.90;999.90;;;;;;;8.03;91.41;164539.50;4999183;28;20470;-66
2021/11/14 08:56:50;;;;;;;1999.90;999.90;;;;;;;8.37;90.58;164630.25;5000111;28;20227;-65
2021/11/14 08:59:16;;;;;;;1999.90;999.90;;;;;;;8.08;90.82;164553.28;5002365;28;20097;-65
2021/11/14 09:01:43;;;;;;;1999.90;999.90;;;;;;;7.86;91.74;164492.75;5000451;28;20132;-66
2021/11/14 09:04:10;;;;;;;1999.90;999.90;;;;;;;7.72;92.20;164457.00;4997120;28;20068;-66
2021/11/14 09:06:38;;;;;;;1999.90;999.90;;;;;;;8.06;91.50;164547.75;5000465;28;20049;-65
2021/11/14 09:09:09;;;;;;;1999.90;999.90;;;;;;;8.12;91.31;164562.88;4998626;28;20054;-65
2021/11/14 09:11:43;;;;;;;;;;;;;;;8.21;90.77;164587.63;5003210;28;20111;-67
2021/11/14 09:14:12;;;;;;;1999.90;999.90;;;;;;;8.49;89.97;164660.59;4999860;28;19930;-67
2021/11/14 09:16:39;;;;;;;1999.90;999.90;;;;;;;7.84;91.66;164487.25;5002845;28;20056;-67
2021/11/14 09:19:07;;;;;;;1999.90;999.90;;;;;;;8.19;91.14;164580.78;5005887;28;20041;-67
2021/11/14 09:21:37;;;;;;;1999.90;999.90;;;;;;;8.06;91.06;164547.75;4994531;28;20439;-66
2021/11/14 09:24:08;;;;;;;1999.90;999.90;;;;;;;8.24;90.54;164594.50;5000649;28;20050;-67
2021/11/14 09:26:37;;;;;;;1999.90;999.90;;;;;;;8.30;90.18;164611.00;4999466;28;20046;-65
2021/11/14 09:29:04;;;;;;;1999.90;999.90;;;;;;;8.09;90.24;164556.00;5000058;28;20697;-65
2021/11/14 09:31:32;;;;;;;1999.90;999.90;;;;;;;8.16;90.49;164572.50;4997088;28;20069;-65
2021/11/14 09:33:59;;;;;;;1999.90;999.90;;;;;;;8.16;90.24;164572.50;4997644;28;20116;-65
2021/11/14 09:36:30;;;;;;;1999.90;999.90;;;;;;;7.91;91.48;164506.53;5001288;28;20498;-65
2021/11/14 09:39:05;;;;;;;1999.90;999.90;;;;;;;8.24;90.77;164594.50;4999171;28;20057;-65
2021/11/14 09:41:32;;;;;;;1999.90;999.90;;;;;;;8.18;90.90;164578.03;5003446;28;20086;-66
2021/11/14 09:43:59;;;;;;;1999.90;999.90;;;;;;;8.19;90.69;164580.78;5001100;28;20364;-66
2021/11/14 09:46:39;;;;;;;1999.90;999.90;;;;;;;8.10;91.01;164558.75;5002414;28;20076;-66
2021/11/14 09:49:07;;;;;;;1999.90;999.90;;;;;;;8.39;89.79;164635.75;5002848;28;20061;-66
2021/11/14 09:51:34;;;;;;;1999.90;999.90;;;;;;;8.37;89.66;164630.25;5000236;28;20108;-66
2021/11/14 09:54:00;;;;;;;1999.90;999.90;;;;;;;8.19;90.13;164580.78;5001279;28;20077;-66
2021/11/14 09:56:27;;;;;;;1999.90;999.90;;;;;;;8.49;89.73;164661.94;5002333;28;20440;-66
2021/11/14 09:58:54;;;;;;;1999.90;999.90;;;;;;;8.34;89.62;164622.00;5000829;28;20049;-66
2021/11/14 10:01:20;;;;;;;1999.90;999.90;;;;;;;8.14;90.30;164568.38;5000785;28;20077;-66
2021/11/14 10:03:47;;;;;;;1999.90;999.90;;;;;;;8.59;89.71;164689.47;4999687;28;20085;-66
2021/11/14 10:06:14;;;;;;;1999.90;999.90;;;;;;;8.40;89.75;164637.16;5001113;28;20083;-67
2021/11/14 10:08:44;;;;;;;1999.90;999.90;;;;;;;7.84;91.19;164487.25;5002378;28;20462;-66
2021/11/14 10:11:11;;;;;;;1999.90;999.90;;;;;;;8.51;89.80;164667.44;5001071;28;20061;-66
2021/11/14 10:13:39;;;;;;;1999.90;999.90;;;;;;;8.55;89.25;164677.09;5001227;28;20886;-66
2021/11/14 10:16:10;;;;;;;1999.90;999.90;;;;;;;8.65;89.04;164704.59;5002929;28;20060;-67
2021/11/14 10:18:40;;;;;;;1999.90;999.90;;;;;;;8.28;90.32;164606.88;4999676;28;20138;-67
2021/11/14 10:21:07;;;;;;;1999.90;999.90;;;;;;;8.59;89.55;164688.06;5001364;28;20422;-66
2021/11/14 10:23:36;;;;;;;1999.90;999.90;;;;;;;8.52;89.34;164668.84;5001463;28;20129;-67
2021/11/14 10:26:06;;;;;;;1999.90;999.90;;;;;;;8.69;89.03;164715.56;4999063;28;20482;-66
2021/11/14 10:28:33;;;;;;;1999.90;999.90;;;;;;;8.54;89.55;164674.31;5002225;28;20423;-66
2021/11/14 10:31:00;;;;;;;1999.90;999.90;;;;;;;8.43;89.58;164646.75;4999169;28;20368;-66
2021/11/14 10:33:27;;;;;;;1999.90;999.90;;;;;;;8.22;90.04;164590.38;5000939;28;20053;-67
2021/11/14 10:35:59;;;;;;;1999.90;999.90;;;;;;;8.43;89.76;164646.75;5001452;28;20056;-66
2021/11/14 10:38:31;;;;;;;1999.90;999.90;;;;;;;8.66;88.80;164707.31;4999141;28;20443;-66
2021/11/14 10:41:02;;;;;;;1999.90;999.90;;;;;;;8.58;89.08;164685.34;5000709;28;20111;-66
2021/11/14 10:43:30;;;;;;;1999.90;999.90;;;;;;;8.61;89.40;164694.94;5001396;28;20077;-66
2021/11/14 10:45:59;;;;;;;1999.90;999.90;;;;;;;8.81;88.40;164747.22;4997818;28;20181;-66
2021/11/14 10:48:28;;;;;;;1999.90;999.90;;;;;;;8.87;88.45;164762.34;5002883;28;20050;-67
2021/11/14 10:51:02;;;;;;;1999.90;999.90;;;;;;;9.01;87.45;164799.47;5000571;28;20082;-67
2021/11/14 10:53:31;;;;;;;1999.90;999.90;;;;;;;9.12;86.62;164831.13;4998795;28;20396;-67
2021/11/14 10:56:09;;;;;;;1999.90;999.90;;;;;;;8.75;88.06;164732.13;5001121;28;20115;-66
2021/11/14 10:58:36;;;;;;;1999.90;999.90;;;;;;;9.09;87.25;164821.50;4999136;28;20050;-67
2021/11/14 11:01:06;;;;;;;1999.90;999.90;;;;;;;9.38;85.92;164898.56;5001392;28;20085;-67